createdAt,value
2022-11-12T00:02:15.250Z,8.13
2022-11-12T00:05:07.683Z,8.17
2022-11-12T00:08:02.788Z,7.77
2022-11-12T00:10:55.533Z,7.67
2022-11-12T00:13:48.552Z,7.43
2022-11-12T00:16:42.197Z,8.97
2022-11-12T00:19:34.161Z,7.93
2022-11-12T00:22:25.638Z,8.27
2022-11-12T00:25:20.246Z,8.17
2022-11-12T00:28:14.887Z,8.50
2022-11-12T00:31:13.840Z,7.53
2022-11-12T00:34:06.171Z,8.07
2022-11-12T00:36:59.795Z,7.43
2022-11-12T00:39:51.538Z,8.50
2022-11-12T00:42:44.909Z,8.07
2022-11-12T00:45:37.380Z,8.30
2022-11-12T00:48:29.756Z,7.80
2022-11-12T00:51:23.123Z,8.33
2022-11-12T00:54:15.142Z,7.87
2022-11-12T00:57:07.538Z,7.90
2022-11-12T01:00:02.741Z,9.20
2022-11-12T01:02:55.393Z,8.13
2022-11-12T01:05:47.186Z,8.13
2022-11-12T01:08:39.191Z,8.60
2022-11-12T01:11:33.318Z,8.73
2022-11-12T01:14:26.507Z,8.50
2022-11-12T01:17:20.259Z,8.23
2022-11-12T01:20:14.150Z,8.53
2022-11-12T01:23:06.682Z,8.13
2022-11-12T01:25:58.858Z,8.30
2022-11-12T01:28:50.358Z,8.87
2022-11-12T01:31:44.020Z,8.07
2022-11-12T01:34:38.470Z,8.30
2022-11-12T01:37:31.312Z,8.33
2022-11-12T01:40:23.772Z,8.80
2022-11-12T01:43:17.482Z,8.07
2022-11-12T01:46:17.357Z,8.23
2022-11-12T01:49:14.212Z,8.00
2022-11-12T01:55:43.054Z,8.17
2022-11-12T01:58:37.934Z,7.20
2022-11-12T02:01:30.269Z,9.00
2022-11-12T02:04:23.276Z,8.77
2022-11-12T02:07:17.388Z,8.57
2022-11-12T02:10:11.074Z,8.17
2022-11-12T02:13:20.570Z,8.70
2022-11-12T02:16:15.482Z,9.10
2022-11-12T02:19:08.346Z,8.80
2022-11-12T02:22:02.769Z,9.07
2022-11-12T02:24:54.729Z,8.77
2022-11-12T02:27:47.094Z,9.80
2022-11-12T02:30:43.418Z,8.93
2022-11-12T02:33:35.778Z,8.73
2022-11-12T02:36:29.448Z,9.10
2022-11-12T02:39:23.198Z,8.83
2022-11-12T02:42:15.078Z,8.70
2022-11-12T02:45:06.889Z,8.83
2022-11-12T02:47:58.692Z,8.13
2022-11-12T02:50:52.347Z,9.30
2022-11-12T02:53:44.167Z,8.90
2022-11-12T02:56:40.601Z,8.93
2022-11-12T02:59:33.930Z,8.87
2022-11-12T03:02:25.706Z,9.97
2022-11-12T03:05:17.828Z,9.13
2022-11-12T03:08:11.784Z,8.23
2022-11-12T03:11:04.499Z,9.07
2022-11-12T03:13:59.717Z,9.63
2022-11-12T03:16:52.129Z,10.97
2022-11-12T03:19:45.099Z,9.87
2022-11-12T03:22:36.639Z,9.83
2022-11-12T03:25:29.338Z,9.70
2022-11-12T03:28:21.695Z,10.40
2022-11-12T03:31:15.393Z,10.00
2022-11-12T03:34:08.218Z,9.10
2022-11-12T03:37:00.915Z,9.60
2022-11-12T03:39:52.962Z,9.57
2022-11-12T03:42:49.135Z,10.13
2022-11-12T03:45:41.635Z,9.63
2022-11-12T03:48:37.551Z,9.57
2022-11-12T03:51:29.883Z,10.00
2022-11-12T03:54:23.161Z,10.23
2022-11-12T03:57:15.332Z,10.10
2022-11-12T04:00:07.612Z,10.40
2022-11-12T04:02:59.983Z,13.13
2022-11-12T04:06:09.597Z,9.53
2022-11-12T04:09:02.019Z,9.53
2022-11-12T04:11:54.689Z,11.03
2022-11-12T04:14:47.229Z,9.63
2022-11-12T04:17:54.576Z,10.37
2022-11-12T04:21:02.144Z,9.30
2022-11-12T04:23:56.681Z,10.43
2022-11-12T04:26:47.668Z,10.30
2022-11-12T04:29:55.726Z,11.33
2022-11-12T04:32:54.748Z,10.60
2022-11-12T04:35:48.579Z,10.57
2022-11-12T04:38:40.481Z,10.67
2022-11-12T04:41:50.276Z,11.20
2022-11-12T04:44:58.440Z,12.30
2022-11-12T04:47:49.904Z,10.97
2022-11-12T04:50:43.163Z,9.63
2022-11-12T04:53:35.884Z,10.93
2022-11-12T04:56:27.708Z,10.97
2022-11-12T04:59:20.888Z,9.97
2022-11-12T05:02:14.552Z,13.87
2022-11-12T05:05:06.674Z,11.53
2022-11-12T05:07:59.420Z,10.27
2022-11-12T05:10:51.748Z,10.27
2022-11-12T05:13:44.366Z,11.30
2022-11-12T05:16:44.047Z,10.37
2022-11-12T05:19:37.441Z,9.83
2022-11-12T05:22:44.030Z,10.70
2022-11-12T05:25:37.442Z,9.90
2022-11-12T05:28:29.407Z,9.53
2022-11-12T05:31:21.700Z,10.80
2022-11-12T05:34:21.603Z,10.23
2022-11-12T05:37:15.601Z,10.47
2022-11-12T05:40:07.499Z,10.80
2022-11-12T05:42:59.742Z,9.97
2022-11-12T05:45:50.887Z,10.40
2022-11-12T05:48:44.218Z,10.33
2022-11-12T05:51:39.259Z,9.53
2022-11-12T05:54:31.684Z,10.17
2022-11-12T05:57:24.710Z,10.00
2022-11-12T06:00:17.532Z,9.90
2022-11-12T06:03:09.356Z,10.17
2022-11-12T06:06:02.400Z,9.73
2022-11-12T06:08:56.396Z,9.90
2022-11-12T06:11:48.455Z,9.50
2022-11-12T06:14:41.987Z,10.30
2022-11-12T06:17:35.113Z,10.07
2022-11-12T06:20:27.386Z,9.30
2022-11-12T06:23:19.222Z,9.40
2022-11-12T06:26:14.243Z,9.00
2022-11-12T06:29:06.684Z,9.53
2022-11-12T06:31:59.217Z,9.83
2022-11-12T06:34:52.012Z,10.20
2022-11-12T06:37:43.758Z,10.77
2022-11-12T06:40:38.787Z,10.90
2022-11-12T06:43:33.977Z,10.90
2022-11-12T06:46:26.047Z,9.90
2022-11-12T06:49:17.503Z,10.10
2022-11-12T06:52:16.409Z,11.50
2022-11-12T06:55:10.383Z,10.60
2022-11-12T06:58:03.115Z,11.07
2022-11-12T07:00:57.672Z,10.47
2022-11-12T07:03:49.957Z,10.97
2022-11-12T07:06:42.102Z,10.93
2022-11-12T07:09:34.329Z,11.40
2022-11-12T07:12:26.168Z,11.40
2022-11-12T07:15:18.341Z,11.73
2022-11-12T07:18:12.178Z,11.87
2022-11-12T07:21:06.180Z,11.50
2022-11-12T07:23:57.925Z,11.13
2022-11-12T07:26:50.778Z,12.17
2022-11-12T07:29:48.169Z,10.73
2022-11-12T07:32:45.966Z,11.33
2022-11-12T07:35:43.577Z,10.70
2022-11-12T07:38:37.444Z,11.23
2022-11-12T07:41:30.433Z,11.60
2022-11-12T07:44:22.012Z,11.53
2022-11-12T07:47:13.960Z,12.27
2022-11-12T07:50:06.577Z,12.00
2022-11-12T07:53:04.114Z,11.40
2022-11-12T07:56:05.986Z,10.87
2022-11-12T07:58:58.809Z,11.03
2022-11-12T08:01:51.491Z,11.03
2022-11-12T08:04:43.503Z,10.73
2022-11-12T08:07:36.013Z,10.23
2022-11-12T08:10:29.660Z,10.07
2022-11-12T08:13:22.179Z,10.57
2022-11-12T08:16:14.370Z,9.97
2022-11-12T08:19:07.427Z,11.10
2022-11-12T08:22:00.399Z,11.30
2022-11-12T08:24:54.279Z,10.60
2022-11-12T08:27:48.600Z,11.17
2022-11-12T08:30:41.764Z,11.10
2022-11-12T08:33:34.130Z,11.40
2022-11-12T08:36:25.846Z,11.00
2022-11-12T08:39:17.957Z,11.03
2022-11-12T08:42:09.803Z,11.67
2022-11-12T08:45:04.913Z,12.23
2022-11-12T08:47:57.609Z,12.33
2022-11-12T08:50:49.519Z,11.80
2022-11-12T08:53:41.763Z,12.33
2022-11-12T08:56:35.312Z,12.30
2022-11-12T08:59:28.008Z,12.27
2022-11-12T09:02:21.152Z,12.37
2022-11-12T09:05:13.989Z,12.30
2022-11-12T09:08:07.607Z,12.53
2022-11-12T09:11:02.722Z,12.20
2022-11-12T09:13:56.646Z,12.57
2022-11-12T09:16:49.453Z,12.57
2022-11-12T09:19:43.232Z,12.93
2022-11-12T09:22:35.651Z,12.70
2022-11-12T09:25:28.012Z,13.53
2022-11-12T09:28:20.486Z,12.47
2022-11-12T09:31:13.102Z,12.60
2022-11-12T09:34:04.934Z,13.20
2022-11-12T09:37:00.361Z,13.03
2022-11-12T09:39:58.324Z,12.30
2022-11-12T09:42:55.062Z,13.90
2022-11-12T09:46:00.345Z,12.50
2022-11-12T09:49:04.896Z,12.07
2022-11-12T09:52:00.975Z,12.57
2022-11-12T09:54:58.676Z,12.60
2022-11-12T09:57:51.237Z,12.30
2022-11-12T10:00:45.322Z,12.57
2022-11-12T10:03:44.378Z,12.43
2022-11-12T10:06:40.501Z,13.63
2022-11-12T10:09:40.034Z,13.90
2022-11-12T10:12:38.511Z,12.87
2022-11-12T10:16:01.608Z,13.30
2022-11-12T10:19:14.398Z,13.93
2022-11-12T10:22:17.284Z,15.20
2022-11-12T10:25:20.032Z,13.80
2022-11-12T10:28:26.045Z,13.77
2022-11-12T10:31:19.655Z,14.50
2022-11-12T10:34:28.537Z,14.37
2022-11-12T10:37:26.473Z,15.03
2022-11-12T10:40:44.208Z,14.73
2022-11-12T10:43:35.528Z,14.57
2022-11-12T10:46:29.189Z,15.47
2022-11-12T10:49:29.949Z,14.33
2022-11-12T10:52:28.572Z,14.50
2022-11-12T10:55:23.436Z,13.33
2022-11-12T10:58:24.291Z,13.40
2022-11-12T11:01:22.548Z,13.93
2022-11-12T11:04:31.194Z,14.10
2022-11-12T11:07:27.937Z,14.13
2022-11-12T11:10:30.892Z,13.73
2022-11-12T11:13:31.288Z,13.37
2022-11-12T11:16:25.485Z,12.23
2022-11-12T11:19:18.443Z,13.70
2022-11-12T11:22:31.107Z,12.80
2022-11-12T11:25:28.907Z,14.63
2022-11-12T11:28:34.961Z,13.07
2022-11-12T11:31:36.298Z,14.00
2022-11-12T11:34:38.159Z,13.53
2022-11-12T11:37:32.629Z,13.17
2022-11-12T11:40:31.230Z,14.73
2022-11-12T11:43:49.589Z,15.03
2022-11-12T11:47:02.548Z,14.80
2022-11-12T11:50:07.739Z,14.20
2022-11-12T11:53:14.122Z,14.57
2022-11-12T11:56:12.682Z,14.20
2022-11-12T11:59:21.523Z,13.07
2022-11-12T12:02:40.958Z,13.27
2022-11-12T12:05:44.946Z,14.17
2022-11-12T12:08:50.370Z,13.43
2022-11-12T12:11:49.306Z,13.90
2022-11-12T12:14:52.872Z,13.03
2022-11-12T12:17:56.138Z,13.00
2022-11-12T12:20:53.524Z,14.13
2022-11-12T12:24:00.026Z,14.00
2022-11-12T12:26:55.001Z,13.77
2022-11-12T12:29:52.738Z,13.57
2022-11-12T12:32:49.333Z,13.23
2022-11-12T12:35:55.825Z,13.23
2022-11-12T12:38:52.920Z,13.67
2022-11-12T12:45:31.893Z,13.67
2022-11-12T12:48:31.339Z,13.13
2022-11-12T12:51:23.667Z,12.80
2022-11-12T12:54:46.391Z,13.50
2022-11-12T12:57:41.195Z,12.53
2022-11-12T13:00:46.090Z,12.90
2022-11-12T13:04:09.821Z,12.93
2022-11-12T13:07:02.319Z,12.60
2022-11-12T13:09:57.760Z,13.07
2022-11-12T13:13:06.607Z,12.80
2022-11-12T13:16:02.578Z,12.93
2022-11-12T13:19:08.253Z,13.17
2022-11-12T13:22:31.126Z,13.07
2022-11-12T13:25:34.104Z,13.10
2022-11-12T13:28:25.888Z,13.13
2022-11-12T13:31:35.258Z,14.37
2022-11-12T13:34:33.852Z,13.13
2022-11-12T13:37:27.599Z,12.30
2022-11-12T13:40:24.466Z,12.33
2022-11-12T13:43:24.655Z,13.80
2022-11-12T13:46:36.087Z,12.83
2022-11-12T13:49:28.377Z,13.70
2022-11-12T13:52:23.638Z,13.00
2022-11-12T13:55:20.595Z,12.63
2022-11-12T13:58:31.824Z,12.90
2022-11-12T14:01:28.521Z,15.03
2022-11-12T14:04:25.120Z,13.70
2022-11-12T14:07:34.508Z,13.70
2022-11-12T14:10:44.865Z,13.37
2022-11-12T14:14:05.537Z,13.47
2022-11-12T14:17:20.861Z,13.80
2022-11-12T14:20:31.673Z,17.67
2022-11-12T14:23:26.069Z,17.97
2022-11-12T14:26:19.341Z,14.27
2022-11-12T14:29:11.605Z,14.23
2022-11-12T14:32:06.644Z,13.33
2022-11-12T14:34:59.901Z,15.27
2022-11-12T14:37:59.215Z,15.80
2022-11-12T14:40:56.115Z,13.87
2022-11-12T14:44:02.499Z,14.07
2022-11-12T14:47:07.285Z,14.20
2022-11-12T14:50:00.492Z,16.67
2022-11-12T14:53:01.915Z,14.77
2022-11-12T14:55:57.164Z,17.00
2022-11-12T14:58:50.578Z,14.57
2022-11-12T15:04:59.356Z,15.60
2022-11-12T15:08:04.501Z,14.73
2022-11-12T15:10:57.403Z,15.00
2022-11-12T15:13:50.916Z,15.03
2022-11-12T15:16:47.755Z,15.63
2022-11-12T15:19:46.064Z,14.77
2022-11-12T15:22:38.576Z,13.93
2022-11-12T15:25:34.346Z,13.80
2022-11-12T15:28:29.467Z,12.93
2022-11-12T15:31:26.193Z,13.00
2022-11-12T15:34:57.555Z,14.37
2022-11-12T15:37:49.765Z,19.60
2022-11-12T15:40:54.521Z,12.47
2022-11-12T15:43:49.580Z,13.03
2022-11-12T15:46:42.018Z,12.87
2022-11-12T15:49:34.673Z,12.57
2022-11-12T15:52:27.131Z,12.17
2022-11-12T15:55:19.230Z,14.63
2022-11-12T15:58:20.043Z,11.47
2022-11-12T16:01:13.445Z,11.50
2022-11-12T16:04:05.332Z,11.67
2022-11-12T16:06:57.745Z,18.40
2022-11-12T16:09:49.215Z,13.23
2022-11-12T16:12:41.749Z,12.00
2022-11-12T16:15:36.529Z,11.47
2022-11-12T16:18:30.997Z,11.93
2022-11-12T16:21:24.004Z,11.90
2022-11-12T16:24:16.870Z,14.13
2022-11-12T16:27:12.489Z,14.13
2022-11-12T16:30:06.205Z,13.50
2022-11-12T16:33:05.112Z,12.63
2022-11-12T16:35:58.304Z,13.87
2022-11-12T16:38:52.916Z,12.90
2022-11-12T16:41:45.257Z,13.57
2022-11-12T16:44:39.352Z,12.33
2022-11-12T16:47:31.946Z,13.70
2022-11-12T16:50:28.864Z,14.70
2022-11-12T16:53:23.114Z,12.80
2022-11-12T16:56:19.257Z,12.07
2022-11-12T16:59:13.513Z,17.90
2022-11-12T17:02:07.192Z,18.57
2022-11-12T17:04:59.604Z,13.23
2022-11-12T17:07:56.688Z,12.40
2022-11-12T17:10:50.282Z,12.83
2022-11-12T17:13:45.523Z,13.77
2022-11-12T17:16:39.041Z,13.30
2022-11-12T17:19:35.656Z,12.37
2022-11-12T17:22:29.816Z,13.27
2022-11-12T17:25:25.945Z,12.47
2022-11-12T17:28:18.646Z,12.10
2022-11-12T17:31:15.218Z,15.00
2022-11-12T17:34:09.997Z,12.83
2022-11-12T17:37:02.284Z,14.00
2022-11-12T17:39:55.029Z,15.70
2022-11-12T17:42:50.279Z,17.43
2022-11-12T17:45:42.535Z,12.77
2022-11-12T17:48:36.382Z,11.80
2022-11-12T17:51:28.423Z,11.73
2022-11-12T17:54:21.249Z,12.20
2022-11-12T17:57:13.952Z,11.83
2022-11-12T18:00:08.900Z,11.00
2022-11-12T18:03:01.467Z,10.43
2022-11-12T18:06:02.585Z,11.23
2022-11-12T18:08:59.016Z,10.53
2022-11-12T18:11:56.184Z,10.70
2022-11-12T18:14:48.190Z,10.63
2022-11-12T18:17:42.686Z,9.97
2022-11-12T18:20:35.945Z,10.13
2022-11-12T18:23:28.688Z,10.50
2022-11-12T18:26:21.240Z,10.93
2022-11-12T18:29:14.143Z,10.90
2022-11-12T18:32:06.731Z,11.40
2022-11-12T18:34:59.969Z,10.63
2022-11-12T18:37:51.545Z,11.23
2022-11-12T18:40:43.739Z,11.47
2022-11-12T18:43:36.363Z,10.70
2022-11-12T18:46:29.602Z,11.40
2022-11-12T18:49:22.344Z,10.63
2022-11-12T18:52:16.321Z,9.93
2022-11-12T18:55:12.506Z,10.87
2022-11-12T18:58:04.104Z,10.70
2022-11-12T19:00:57.432Z,10.77
2022-11-12T19:03:49.470Z,11.40
2022-11-12T19:06:42.369Z,10.90
2022-11-12T19:09:36.757Z,10.80
2022-11-12T19:12:30.082Z,11.10
2022-11-12T19:15:26.418Z,11.27
2022-11-12T19:18:18.498Z,11.33
2022-11-12T19:21:12.017Z,11.33
2022-11-12T19:24:04.660Z,11.30
2022-11-12T19:26:59.591Z,11.13
2022-11-12T19:29:51.568Z,11.40
2022-11-12T19:32:42.847Z,12.00
2022-11-12T19:35:35.661Z,11.30
2022-11-12T19:38:27.546Z,11.67
2022-11-12T19:41:25.948Z,11.93
2022-11-12T19:44:20.012Z,12.10
2022-11-12T19:47:11.698Z,12.40
2022-11-12T19:50:06.589Z,12.23
2022-11-12T19:52:59.564Z,13.20
2022-11-12T19:55:51.836Z,13.43
2022-11-12T19:58:42.468Z,12.73
2022-11-12T20:01:35.572Z,13.17
2022-11-12T20:04:27.377Z,14.33
2022-11-12T20:07:18.234Z,15.07
2022-11-12T20:10:11.820Z,14.70
2022-11-12T20:13:04.608Z,14.17
2022-11-12T20:15:56.486Z,13.90
2022-11-12T20:18:51.236Z,13.23
2022-11-12T20:21:43.864Z,13.40
2022-11-12T20:24:37.042Z,12.73
2022-11-12T20:27:29.825Z,11.30
2022-11-12T20:30:21.845Z,11.40
2022-11-12T20:33:15.214Z,11.10
2022-11-12T20:36:14.415Z,11.13
2022-11-12T20:39:06.277Z,11.33
2022-11-12T20:41:58.546Z,11.17
2022-11-12T20:44:50.567Z,11.57
2022-11-12T20:47:42.669Z,10.47
2022-11-12T20:50:35.266Z,10.57
2022-11-12T20:53:28.910Z,10.70
2022-11-12T20:56:22.882Z,10.00
2022-11-12T20:59:15.286Z,10.10
2022-11-12T21:02:07.266Z,10.00
2022-11-12T21:04:59.821Z,9.73
2022-11-12T21:07:56.860Z,10.10
2022-11-12T21:10:54.672Z,10.40
2022-11-12T21:13:47.275Z,10.70
2022-11-12T21:16:39.609Z,10.17
2022-11-12T21:19:31.739Z,10.10
2022-11-12T21:22:23.795Z,10.23
2022-11-12T21:25:15.707Z,10.10
2022-11-12T21:28:11.129Z,10.30
2022-11-12T21:31:08.380Z,10.30
2022-11-12T21:34:02.214Z,10.40
2022-11-12T21:36:54.409Z,10.30
2022-11-12T21:39:46.459Z,10.57
2022-11-12T21:42:38.572Z,9.97
2022-11-12T21:45:32.589Z,10.03
2022-11-12T21:48:25.442Z,9.67
2022-11-12T21:51:21.253Z,10.60
2022-11-12T21:54:19.048Z,11.27
2022-11-12T21:57:16.145Z,10.77
2022-11-12T22:00:40.495Z,10.83
2022-11-12T22:03:25.335Z,10.87
2022-11-12T22:06:17.261Z,11.23
2022-11-12T22:09:10.138Z,11.73
2022-11-12T22:12:01.323Z,11.20
2022-11-12T22:14:53.562Z,11.57
2022-11-12T22:17:48.291Z,11.57
2022-11-12T22:20:42.928Z,11.50
2022-11-12T22:23:37.603Z,12.37
2022-11-12T22:26:31.444Z,11.67
2022-11-12T22:29:22.829Z,11.33
2022-11-12T22:32:14.604Z,11.90
2022-11-12T22:35:07.542Z,12.00
2022-11-12T22:38:02.463Z,12.10
2022-11-12T22:40:54.747Z,11.27
2022-11-12T22:43:46.515Z,12.10
2022-11-12T22:46:40.291Z,11.63
2022-11-12T22:49:33.177Z,11.37
2022-11-12T22:52:24.597Z,11.97
2022-11-12T22:55:19.073Z,10.97
2022-11-12T22:58:11.127Z,12.03
2022-11-12T23:01:02.824Z,11.23
2022-11-12T23:03:55.299Z,11.47
2022-11-12T23:06:48.303Z,12.10
2022-11-12T23:09:40.866Z,12.43
2022-11-12T23:12:34.023Z,11.60
2022-11-12T23:15:26.325Z,13.53
2022-11-12T23:18:19.030Z,12.30
2022-11-12T23:21:12.970Z,12.93
2022-11-12T23:24:05.031Z,12.87
2022-11-12T23:26:57.843Z,13.10
2022-11-12T23:29:52.030Z,12.63
2022-11-12T23:32:43.831Z,13.50
2022-11-12T23:35:36.774Z,12.37
2022-11-12T23:38:28.946Z,12.07
2022-11-12T23:41:23.929Z,12.57
2022-11-12T23:44:15.595Z,13.07
2022-11-12T23:47:10.012Z,12.00
2022-11-12T23:50:17.919Z,13.10
2022-11-12T23:53:11.979Z,13.47
2022-11-12T23:56:05.165Z,10.87
2022-11-12T23:58:58.485Z,10.87
